This is the latest recevied weather packets stored in our database for station/object K0WXC-1. If no packets are shown the sender has not sent any weather packets the latest 10 day(s).
| Time | Temp. | Humidity | Pressure | Rain* | Wind** | Luminosity | Snow |
|---|---|---|---|---|---|---|---|
| 1777190548 | 14.44° C | 62% | 999.6 hPa | 0 mm | 2.68 m/s, 123° | - | - |
| 1777190488 | 14.44° C | 62% | 999.6 hPa | 0 mm | 2.68 m/s, 123° | - | - |
| 1777190428 | 14.44° C | 62% | 999.8 hPa | 0 mm | 3.58 m/s, 80° | - | - |
| 1777190368 | 14.44° C | 62% | 999.8 hPa | 0 mm | 3.58 m/s, 80° | - | - |
| 1777190308 | 14.44° C | 62% | 999.8 hPa | 0 mm | 3.58 m/s, 80° | - | - |
| 1777190248 | 14.44° C | 62% | 999.8 hPa | 0 mm | 3.58 m/s, 80° | - | - |
| 1777190188 | 14.44° C | 62% | 999.8 hPa | 0 mm | 3.58 m/s, 80° | - | - |
| 1777190128 | 14.44° C | 62% | 999.8 hPa | 0 mm | 2.68 m/s, 76° | - | - |
| 1777190068 | 14.44° C | 62% | 999.8 hPa | 0 mm | 2.68 m/s, 76° | - | - |
| 1777190008 | 14.44° C | 62% | 999.8 hPa | 0 mm | 2.68 m/s, 76° | - | - |
| 1777189948 | 14.44° C | 62% | 999.8 hPa | 0 mm | 2.68 m/s, 76° | - | - |
| 1777189888 | 14.44° C | 62% | 999.8 hPa | 0 mm | 2.68 m/s, 76° | - | - |
| 1777189829 | 14.44° C | 62% | 1000 hPa | 0 mm | 0.89 m/s, 127° | - | - |
| 1777189768 | 14.44° C | 62% | 1000 hPa | 0 mm | 0.89 m/s, 127° | - | - |
| 1777189708 | 14.44° C | 62% | 1000 hPa | 0 mm | 0.89 m/s, 127° | - | - |
| 1777189648 | 14.44° C | 62% | 1000 hPa | 0 mm | 0.89 m/s, 127° | - | - |
| 1777189588 | 14.44° C | 62% | 1000 hPa | 0 mm | 0.89 m/s, 127° | - | - |
| 1777189528 | 14.44° C | 61% | 1000.1 hPa | 0 mm | 1.34 m/s, 83° | - | - |
| 1777189468 | 14.44° C | 61% | 1000.1 hPa | 0 mm | 1.34 m/s, 83° | - | - |
| 1777189408 | 14.44° C | 61% | 1000.1 hPa | 0 mm | 1.34 m/s, 83° | - | - |
| 1777189348 | 14.44° C | 61% | 1000.1 hPa | 0 mm | 1.34 m/s, 83° | - | - |
| 1777189288 | 14.44° C | 61% | 1000.1 hPa | 0 mm | 1.34 m/s, 83° | - | - |
| 1777189228 | 14.44° C | 60% | 1000 hPa | 0 mm | 2.24 m/s, 110° | - | - |
| 1777189168 | 14.44° C | 60% | 1000 hPa | 0 mm | 2.24 m/s, 110° | - | - |
* Rain latest hour (hover to see other rain measurements)
** Current wind speed in m/s (hover to see current wind gust speed)